createdAt,value
2019-03-08T00:00:03.091Z,7.60
2019-03-08T00:01:02.959Z,4.90
2019-03-08T00:02:02.961Z,5.70
2019-03-08T00:03:03.170Z,8.50
2019-03-08T00:04:03.041Z,8.50
2019-03-08T00:05:02.910Z,6.00
2019-03-08T00:06:02.902Z,6.90
2019-03-08T00:07:02.945Z,6.40
2019-03-08T00:08:02.882Z,6.20
2019-03-08T00:09:02.965Z,6.90
2019-03-08T00:10:02.860Z,4.40
2019-03-08T00:11:02.864Z,6.10
2019-03-08T00:12:03.113Z,6.80
2019-03-08T00:13:03.243Z,8.10
2019-03-08T00:14:55.176Z,5.50
2019-03-08T00:15:53.946Z,6.10
2019-03-08T00:16:53.917Z,5.00
2019-03-08T00:17:53.926Z,6.00
2019-03-08T00:18:53.896Z,7.70
2019-03-08T00:19:53.890Z,6.00
2019-03-08T00:20:54.177Z,5.30
2019-03-08T00:21:54.129Z,6.50
2019-03-08T00:22:53.881Z,11.10
2019-03-08T00:23:53.843Z,7.50
2019-03-08T00:24:54.036Z,7.40
2019-03-08T00:25:53.822Z,6.90
2019-03-08T00:26:53.811Z,7.90
2019-03-08T00:27:53.820Z,4.80
2019-03-08T00:28:55.142Z,7.80
2019-03-08T00:29:53.777Z,7.00
2019-03-08T00:30:54.518Z,6.30
2019-03-08T00:31:53.788Z,5.90
2019-03-08T00:32:53.768Z,6.30
2019-03-08T00:33:54.123Z,4.70
2019-03-08T00:34:53.768Z,4.90
2019-03-08T00:35:53.712Z,7.80
2019-03-08T00:36:53.744Z,7.60
2019-03-08T00:37:53.712Z,6.10
2019-03-08T00:38:53.681Z,5.10
2019-03-08T00:39:53.673Z,8.10
2019-03-08T00:40:53.662Z,7.60
2019-03-08T00:41:53.708Z,5.60
2019-03-08T00:42:54.103Z,8.70
2019-03-08T00:43:53.628Z,5.10
2019-03-08T00:44:53.617Z,5.30
2019-03-08T00:45:53.610Z,7.00
2019-03-08T00:46:53.656Z,5.20
2019-03-08T00:47:53.612Z,6.40
2019-03-08T00:48:53.575Z,8.10
2019-03-08T00:49:53.573Z,8.30
2019-03-08T00:50:53.552Z,7.90
2019-03-08T00:51:53.599Z,7.20
2019-03-08T00:52:53.574Z,6.70
2019-03-08T00:53:53.520Z,9.30
2019-03-08T00:54:53.557Z,8.90
2019-03-08T00:55:53.514Z,7.50
2019-03-08T00:56:53.493Z,5.80
2019-03-08T00:57:53.503Z,6.20
2019-03-08T00:58:53.524Z,5.60
2019-03-08T00:59:53.463Z,6.70
2019-03-08T01:00:53.448Z,7.20
2019-03-08T01:01:53.591Z,9.40
2019-03-08T01:02:53.447Z,7.70
2019-03-08T01:03:53.413Z,8.30
2019-03-08T01:04:53.740Z,7.20
2019-03-08T01:05:53.508Z,7.90
2019-03-08T01:06:53.381Z,6.10
2019-03-08T01:07:53.391Z,6.20
2019-03-08T01:08:53.555Z,7.60
2019-03-08T01:09:53.347Z,7.70
2019-03-08T01:10:53.337Z,7.30
2019-03-08T01:11:53.327Z,8.40
2019-03-08T01:12:53.340Z,6.10
2019-03-08T01:13:53.418Z,10.20
2019-03-08T01:14:53.425Z,7.30
2019-03-08T01:15:53.303Z,7.90
2019-03-08T01:16:53.317Z,8.30
2019-03-08T01:17:53.499Z,9.60
2019-03-08T01:18:53.251Z,7.90
2019-03-08T01:19:53.267Z,8.20
2019-03-08T01:20:53.232Z,8.40
2019-03-08T01:21:53.239Z,9.90
2019-03-08T01:22:53.215Z,7.70
2019-03-08T01:23:53.592Z,8.40
2019-03-08T01:24:53.187Z,8.30
2019-03-08T01:25:53.214Z,11.00
2019-03-08T01:26:54.059Z,9.80
2019-03-08T01:27:53.224Z,6.70
2019-03-08T01:28:53.165Z,9.50
2019-03-08T01:29:53.135Z,7.50
2019-03-08T01:30:53.151Z,7.60
2019-03-08T01:31:53.514Z,10.80
2019-03-08T01:32:53.104Z,7.10
2019-03-08T01:33:53.111Z,8.20
2019-03-08T01:34:53.079Z,8.50
2019-03-08T01:35:53.257Z,8.50
2019-03-08T01:36:53.562Z,9.20
2019-03-08T01:37:53.048Z,6.50
2019-03-08T01:38:53.084Z,7.40
2019-03-08T01:39:53.028Z,9.70
2019-03-08T01:40:53.038Z,9.40
2019-03-08T01:41:53.025Z,10.30
2019-03-08T01:42:52.994Z,9.50
2019-03-08T01:43:53.004Z,8.90
2019-03-08T01:44:52.974Z,9.40
2019-03-08T01:45:53.563Z,9.90
2019-03-08T01:46:52.953Z,6.20
2019-03-08T01:47:52.941Z,8.40
2019-03-08T01:48:53.594Z,9.20
2019-03-08T01:49:53.546Z,8.20
2019-03-08T01:50:52.909Z,7.60
2019-03-08T01:51:52.898Z,6.80
2019-03-08T01:52:52.887Z,9.00
2019-03-08T01:53:52.918Z,9.30
2019-03-08T01:54:52.919Z,12.30
2019-03-08T01:55:52.857Z,9.70
2019-03-08T01:56:52.843Z,12.00
2019-03-08T01:57:53.565Z,8.50
2019-03-08T01:58:53.586Z,9.70
2019-03-08T01:59:52.829Z,8.00
2019-03-08T02:00:52.800Z,10.30
2019-03-08T02:01:52.841Z,8.30
2019-03-08T02:02:52.803Z,10.00
2019-03-08T02:03:52.768Z,9.30
2019-03-08T02:04:52.775Z,8.80
2019-03-08T02:05:52.750Z,11.10
2019-03-08T02:06:52.737Z,9.50
2019-03-08T02:07:52.804Z,10.10
2019-03-08T02:08:52.716Z,11.90
2019-03-08T02:09:52.746Z,10.10
2019-03-08T02:10:52.773Z,8.90
2019-03-08T02:11:52.683Z,10.60
2019-03-08T02:12:52.673Z,8.10
2019-03-08T02:13:52.662Z,9.10
2019-03-08T02:14:52.653Z,9.10
2019-03-08T02:15:52.661Z,11.40
2019-03-08T02:16:52.686Z,9.60
2019-03-08T02:17:52.616Z,10.60
2019-03-08T02:18:52.609Z,9.40
2019-03-08T02:19:52.954Z,7.80
2019-03-08T02:20:53.098Z,9.20
2019-03-08T02:21:52.576Z,11.60
2019-03-08T02:22:52.564Z,7.70
2019-03-08T02:23:52.561Z,12.30
2019-03-08T02:24:52.545Z,11.30
2019-03-08T02:25:52.550Z,10.70
2019-03-08T02:26:52.529Z,11.00
2019-03-08T02:27:52.511Z,9.40
2019-03-08T02:28:52.551Z,10.80
2019-03-08T02:29:52.531Z,11.60
2019-03-08T02:30:52.517Z,12.60
2019-03-08T02:31:52.489Z,10.20
2019-03-08T02:32:52.661Z,12.10
2019-03-08T02:33:52.446Z,12.10
2019-03-08T02:34:52.434Z,11.00
2019-03-08T02:35:52.424Z,9.50
2019-03-08T02:36:52.442Z,11.00
2019-03-08T02:37:52.404Z,15.40
2019-03-08T02:38:52.468Z,12.90
2019-03-08T02:39:52.383Z,11.40
2019-03-08T02:40:52.385Z,9.80
2019-03-08T02:41:53.103Z,10.60
2019-03-08T02:42:53.043Z,11.80
2019-03-08T02:43:52.339Z,8.70
2019-03-08T02:44:52.329Z,10.90
2019-03-08T02:45:52.318Z,9.50
2019-03-08T02:46:52.326Z,12.70
2019-03-08T02:47:52.297Z,8.70
2019-03-08T02:48:52.285Z,7.50
2019-03-08T02:49:52.297Z,8.50
2019-03-08T02:50:52.561Z,7.80
2019-03-08T02:51:52.631Z,9.60
2019-03-08T02:52:52.244Z,7.60
2019-03-08T02:53:52.234Z,7.10
2019-03-08T02:54:52.334Z,7.40
2019-03-08T02:55:52.211Z,9.90
2019-03-08T02:56:52.200Z,10.10
2019-03-08T02:57:52.234Z,7.40
2019-03-08T02:58:52.178Z,9.80
2019-03-08T02:59:52.168Z,12.00
2019-03-08T03:00:53.080Z,6.30
2019-03-08T03:01:52.153Z,9.10
2019-03-08T03:02:52.344Z,9.50
2019-03-08T03:03:52.146Z,7.00
2019-03-08T03:04:52.114Z,13.30
2019-03-08T03:05:52.120Z,10.60
2019-03-08T03:06:52.096Z,8.80
2019-03-08T03:07:52.130Z,9.70
2019-03-08T03:08:52.076Z,8.10
2019-03-08T03:09:52.101Z,9.70
2019-03-08T03:10:52.051Z,10.70
2019-03-08T03:11:52.087Z,8.50
2019-03-08T03:12:52.284Z,6.90
2019-03-08T03:13:52.146Z,7.00
2019-03-08T03:14:52.050Z,6.10
2019-03-08T03:15:51.996Z,7.80
2019-03-08T03:16:52.557Z,8.90
2019-03-08T03:17:51.974Z,8.30
2019-03-08T03:18:51.991Z,8.60
2019-03-08T03:19:51.964Z,7.90
2019-03-08T03:20:51.943Z,8.20
2019-03-08T03:21:52.022Z,6.60
2019-03-08T03:22:51.988Z,7.90
2019-03-08T03:23:51.929Z,7.20
2019-03-08T03:24:51.930Z,9.50
2019-03-08T03:25:52.553Z,6.60
2019-03-08T03:26:51.878Z,8.90
2019-03-08T03:27:51.867Z,10.50
2019-03-08T03:28:51.916Z,7.00
2019-03-08T03:29:51.847Z,8.90
2019-03-08T03:30:51.846Z,10.00
2019-03-08T03:31:51.870Z,10.10
2019-03-08T03:32:51.838Z,9.40
2019-03-08T03:33:51.925Z,11.80
2019-03-08T03:34:51.873Z,11.50
2019-03-08T03:35:51.838Z,9.40
2019-03-08T03:36:51.775Z,10.40
2019-03-08T03:37:51.760Z,7.20
2019-03-08T03:38:51.751Z,6.70
2019-03-08T03:39:51.758Z,6.70
2019-03-08T03:40:51.728Z,5.10
2019-03-08T03:41:51.721Z,5.80
2019-03-08T03:42:51.804Z,6.10
2019-03-08T03:43:52.560Z,6.60
2019-03-08T03:44:52.169Z,3.90
2019-03-08T03:45:51.681Z,7.00
2019-03-08T03:46:51.682Z,4.10
2019-03-08T03:47:52.595Z,4.90
2019-03-08T03:48:51.647Z,4.70
2019-03-08T03:49:51.641Z,4.90
2019-03-08T03:50:51.640Z,7.30
2019-03-08T03:51:51.611Z,5.10
2019-03-08T03:52:51.600Z,6.80
2019-03-08T03:53:51.599Z,3.90
2019-03-08T03:54:51.581Z,3.90
2019-03-08T03:55:51.588Z,4.70
2019-03-08T03:56:53.472Z,5.10
2019-03-08T03:57:51.555Z,5.80
2019-03-08T03:58:51.536Z,4.70
2019-03-08T03:59:51.524Z,5.80
2019-03-08T04:00:51.531Z,3.30
2019-03-08T04:01:51.504Z,5.50
2019-03-08T04:02:51.509Z,3.40
2019-03-08T04:03:51.483Z,5.60
2019-03-08T04:04:51.471Z,6.30
2019-03-08T04:05:51.480Z,7.20
2019-03-08T04:06:51.460Z,7.70
2019-03-08T04:07:51.441Z,7.20
2019-03-08T04:08:51.430Z,6.20
2019-03-08T04:09:51.418Z,4.50
2019-03-08T04:10:51.430Z,7.20
2019-03-08T04:11:51.409Z,7.50
2019-03-08T04:12:51.392Z,3.60
2019-03-08T04:13:51.376Z,6.60
2019-03-08T04:14:51.365Z,4.50
2019-03-08T04:15:51.401Z,5.80
2019-03-08T04:16:51.343Z,6.90
2019-03-08T04:17:51.352Z,5.20
2019-03-08T04:18:51.322Z,6.70
2019-03-08T04:19:51.318Z,7.20
2019-03-08T04:20:51.308Z,5.50
2019-03-08T04:21:51.308Z,7.40
2019-03-08T04:22:51.279Z,5.60
2019-03-08T04:23:51.268Z,5.50
2019-03-08T04:24:51.268Z,6.00
2019-03-08T04:25:51.246Z,6.00
2019-03-08T04:26:51.259Z,5.60
2019-03-08T04:27:51.227Z,5.70
2019-03-08T04:28:51.214Z,6.60
2019-03-08T04:29:51.214Z,5.40
2019-03-08T04:30:51.192Z,8.00
2019-03-08T04:31:51.185Z,6.40
2019-03-08T04:32:51.632Z,5.40
2019-03-08T04:33:51.173Z,5.70
2019-03-08T04:34:51.152Z,5.40
2019-03-08T04:35:51.139Z,4.60
2019-03-08T04:36:51.149Z,3.20
2019-03-08T04:37:51.155Z,3.30
2019-03-08T04:38:51.120Z,4.40
2019-03-08T04:39:51.108Z,4.80
2019-03-08T04:40:51.091Z,3.10
2019-03-08T04:41:51.119Z,2.10
2019-03-08T04:42:51.072Z,2.10
2019-03-08T04:43:51.056Z,4.20
2019-03-08T04:44:51.046Z,3.30
2019-03-08T04:45:51.034Z,3.50
2019-03-08T04:46:51.022Z,4.50
2019-03-08T04:47:51.050Z,3.80
2019-03-08T04:48:51.002Z,6.00
2019-03-08T04:49:50.991Z,4.50
2019-03-08T04:50:50.983Z,4.90
2019-03-08T04:51:50.979Z,4.20
2019-03-08T04:52:50.989Z,5.40
2019-03-08T04:53:50.949Z,3.40
2019-03-08T04:54:50.939Z,4.70
2019-03-08T04:55:50.927Z,4.80
2019-03-08T04:56:50.934Z,5.50
2019-03-08T04:57:50.927Z,4.40
2019-03-08T04:58:50.896Z,6.50
2019-03-08T04:59:50.885Z,4.80
2019-03-08T05:00:50.893Z,4.20
2019-03-08T05:01:50.864Z,3.40
2019-03-08T05:02:50.875Z,3.80
2019-03-08T05:03:50.841Z,4.10
2019-03-08T05:04:50.835Z,4.50
2019-03-08T05:05:50.833Z,3.10
2019-03-08T05:06:50.812Z,4.50
2019-03-08T05:07:50.816Z,4.70
2019-03-08T05:08:50.811Z,4.90
2019-03-08T05:09:50.785Z,5.00
2019-03-08T05:10:50.776Z,5.50
2019-03-08T05:11:58.366Z,5.00
2019-03-08T05:12:50.754Z,3.80
2019-03-08T05:13:50.757Z,4.40
2019-03-08T05:14:50.728Z,4.40
2019-03-08T05:15:50.713Z,7.10
2019-03-08T05:16:50.703Z,4.50
2019-03-08T05:17:50.691Z,4.50
2019-03-08T05:18:50.705Z,4.60
2019-03-08T05:19:50.672Z,4.40
2019-03-08T05:20:50.661Z,3.70
2019-03-08T05:21:50.653Z,5.40
2019-03-08T05:22:50.669Z,3.30
2019-03-08T05:23:50.647Z,7.60
2019-03-08T05:24:50.660Z,7.90
2019-03-08T05:25:50.610Z,6.70
2019-03-08T05:26:50.601Z,5.80
2019-03-08T05:27:50.587Z,6.90
2019-03-08T05:28:50.633Z,7.30
2019-03-08T05:29:50.564Z,5.80
2019-03-08T05:30:50.560Z,6.10
2019-03-08T05:31:50.557Z,8.40
2019-03-08T05:32:50.538Z,6.90
2019-03-08T05:33:50.521Z,7.90
2019-03-08T05:34:50.548Z,5.30
2019-03-08T05:35:50.507Z,10.00
2019-03-08T05:36:50.501Z,5.60
2019-03-08T05:37:50.488Z,6.60
2019-03-08T05:38:50.470Z,8.90
2019-03-08T05:39:50.499Z,6.70
2019-03-08T05:40:50.455Z,8.20
2019-03-08T05:41:50.440Z,8.00
2019-03-08T05:42:50.428Z,8.00
2019-03-08T05:43:50.425Z,6.70
2019-03-08T05:44:50.407Z,4.80
2019-03-08T05:45:50.415Z,6.60
2019-03-08T05:46:50.388Z,7.80
2019-03-08T05:47:50.396Z,8.50
2019-03-08T05:48:50.395Z,7.90
2019-03-08T05:49:50.374Z,5.30
2019-03-08T05:50:50.342Z,6.90
2019-03-08T05:51:50.329Z,11.20
2019-03-08T05:52:50.318Z,6.50
2019-03-08T05:53:50.333Z,12.30
2019-03-08T05:54:50.299Z,10.30
2019-03-08T05:55:50.306Z,8.10
2019-03-08T05:56:50.277Z,8.60
2019-03-08T05:57:50.285Z,9.10
2019-03-08T05:58:50.259Z,7.70
2019-03-08T05:59:50.266Z,9.60
2019-03-08T06:00:50.269Z,11.90
2019-03-08T06:01:50.226Z,7.40
2019-03-08T06:02:50.224Z,8.70
2019-03-08T06:03:50.202Z,9.30
2019-03-08T06:04:50.222Z,9.80
2019-03-08T06:05:50.183Z,8.60
2019-03-08T06:06:50.172Z,7.40
2019-03-08T06:07:50.169Z,6.70
2019-03-08T06:08:50.152Z,8.10
2019-03-08T06:09:50.140Z,9.10
2019-03-08T06:10:50.153Z,8.50
2019-03-08T06:11:50.117Z,6.20
2019-03-08T06:12:50.108Z,8.90
2019-03-08T06:13:50.107Z,7.90
2019-03-08T06:14:50.086Z,8.90
2019-03-08T06:15:50.093Z,9.60
2019-03-08T06:16:50.076Z,10.70
2019-03-08T06:17:50.056Z,7.90
2019-03-08T06:18:50.040Z,11.90
2019-03-08T06:19:50.030Z,10.80
2019-03-08T06:20:50.047Z,9.00
2019-03-08T06:21:50.020Z,10.10
2019-03-08T06:22:50.004Z,8.60
2019-03-08T06:23:49.989Z,9.00
2019-03-08T06:24:49.977Z,10.90
2019-03-08T06:25:50.000Z,18.50
2019-03-08T06:26:49.957Z,17.50
2019-03-08T06:27:49.950Z,15.10
2019-03-08T06:28:49.937Z,15.40
2019-03-08T06:29:49.923Z,16.20
2019-03-08T06:30:49.928Z,20.80
2019-03-08T06:31:49.903Z,13.20
2019-03-08T06:32:49.897Z,15.70
2019-03-08T06:33:49.883Z,12.10
2019-03-08T06:34:49.880Z,15.10
2019-03-08T06:35:49.881Z,14.00
2019-03-08T06:36:49.860Z,14.00
2019-03-08T06:37:49.842Z,14.10
2019-03-08T06:38:49.836Z,18.00
2019-03-08T06:39:49.818Z,16.80
2019-03-08T06:40:49.823Z,16.20
2019-03-08T06:41:49.795Z,13.70
2019-03-08T06:42:49.785Z,15.80
2019-03-08T06:43:49.795Z,9.90
2019-03-08T06:44:49.762Z,10.80
2019-03-08T06:45:49.776Z,10.90
2019-03-08T06:46:49.759Z,11.00
2019-03-08T06:47:49.733Z,10.80
2019-03-08T06:48:49.740Z,17.50
2019-03-08T06:49:49.709Z,12.90
2019-03-08T06:50:49.721Z,11.80
2019-03-08T06:51:49.688Z,16.00
2019-03-08T06:52:49.679Z,11.60
2019-03-08T06:53:49.678Z,14.50
2019-03-08T06:54:49.661Z,13.00
2019-03-08T06:55:49.668Z,16.50
2019-03-08T06:56:49.634Z,13.70
2019-03-08T06:57:49.648Z,16.10
2019-03-08T06:58:49.616Z,14.10
2019-03-08T06:59:49.605Z,17.00
2019-03-08T07:00:49.620Z,14.00
2019-03-08T07:01:49.586Z,16.20
2019-03-08T07:02:49.587Z,14.40
2019-03-08T07:03:49.563Z,17.60
2019-03-08T07:04:49.549Z,13.80
2019-03-08T07:05:49.591Z,14.50
2019-03-08T07:06:49.539Z,15.30
2019-03-08T07:07:49.569Z,14.10
2019-03-08T07:08:49.506Z,16.80
2019-03-08T07:09:49.496Z,12.70
2019-03-08T07:10:49.487Z,13.80
2019-03-08T07:11:49.529Z,15.30
2019-03-08T07:12:49.463Z,17.80
2019-03-08T07:13:49.456Z,18.50
2019-03-08T07:14:49.457Z,13.00
2019-03-08T07:15:49.433Z,17.80
2019-03-08T07:16:49.469Z,18.10
2019-03-08T07:17:49.424Z,23.80
2019-03-08T07:18:49.404Z,15.30
2019-03-08T07:19:49.390Z,16.70
2019-03-08T07:20:49.401Z,14.80
2019-03-08T07:21:49.402Z,17.90
2019-03-08T07:22:49.361Z,16.40
2019-03-08T07:23:49.351Z,15.50
2019-03-08T07:24:49.351Z,15.40
2019-03-08T07:25:53.491Z,19.60
2019-03-08T07:26:50.334Z,18.30
2019-03-08T07:27:49.308Z,19.50
2019-03-08T07:28:49.294Z,18.30
2019-03-08T07:29:49.300Z,15.10
2019-03-08T07:30:57.642Z,15.60
2019-03-08T07:31:50.282Z,18.70
2019-03-08T07:32:49.263Z,19.20
2019-03-08T07:33:53.075Z,18.40
2019-03-08T07:34:49.229Z,19.30
2019-03-08T07:35:49.219Z,21.80
2019-03-08T07:36:49.229Z,17.00
2019-03-08T07:37:49.199Z,18.70
2019-03-08T07:38:49.204Z,20.50
2019-03-08T07:39:49.177Z,18.50
2019-03-08T07:40:49.172Z,17.30
2019-03-08T07:41:49.180Z,19.10
2019-03-08T07:42:49.168Z,16.60
2019-03-08T07:43:49.135Z,19.20
2019-03-08T07:44:49.123Z,20.10
2019-03-08T07:45:49.115Z,20.60
2019-03-08T07:46:49.193Z,17.50
2019-03-08T07:47:49.104Z,18.70
2019-03-08T07:48:49.088Z,21.90
2019-03-08T07:49:49.076Z,15.40
2019-03-08T07:50:49.064Z,19.80
2019-03-08T07:51:49.061Z,18.20
2019-03-08T07:52:49.084Z,16.50
2019-03-08T07:53:49.048Z,17.90
2019-03-08T07:54:52.913Z,14.50
2019-03-08T07:55:49.005Z,14.90
2019-03-08T07:56:49.025Z,19.80
2019-03-08T07:57:49.053Z,18.00
2019-03-08T07:58:48.999Z,16.00
2019-03-08T07:59:53.797Z,20.70
2019-03-08T08:00:49.961Z,20.10
2019-03-08T08:01:48.949Z,17.40
2019-03-08T08:02:48.966Z,18.40
2019-03-08T08:03:48.954Z,16.70
2019-03-08T08:04:48.915Z,15.60
2019-03-08T08:05:57.642Z,17.30
2019-03-08T08:06:49.904Z,15.00
2019-03-08T08:07:48.908Z,18.80
2019-03-08T08:08:51.931Z,15.60
2019-03-08T08:09:48.862Z,14.50
2019-03-08T08:10:48.852Z,19.60
2019-03-08T08:11:48.851Z,18.40
2019-03-08T08:12:48.847Z,23.40
2019-03-08T08:13:48.818Z,14.20
2019-03-08T08:14:48.805Z,15.50
2019-03-08T08:15:48.794Z,19.10
2019-03-08T08:16:48.793Z,14.20
2019-03-08T08:17:48.793Z,15.30
2019-03-08T08:18:48.778Z,18.70
2019-03-08T08:19:48.756Z,15.80
2019-03-08T08:20:48.742Z,15.10
2019-03-08T08:21:48.738Z,15.10
2019-03-08T08:22:48.738Z,15.20
2019-03-08T08:23:48.711Z,15.20
2019-03-08T08:24:48.710Z,15.00
2019-03-08T08:25:48.692Z,16.60
2019-03-08T08:26:48.681Z,17.10
2019-03-08T08:27:48.707Z,14.90
2019-03-08T08:28:50.123Z,15.50
2019-03-08T08:29:48.648Z,14.30
2019-03-08T08:30:48.639Z,15.90
2019-03-08T08:31:48.628Z,13.80
2019-03-08T08:32:48.620Z,13.50
2019-03-08T08:33:48.633Z,18.20
2019-03-08T08:34:48.610Z,15.80
2019-03-08T08:35:48.595Z,14.70
2019-03-08T08:36:48.592Z,12.80
2019-03-08T08:37:48.566Z,14.30
2019-03-08T08:38:48.566Z,14.80
2019-03-08T08:39:48.539Z,20.00
2019-03-08T08:40:48.535Z,17.90
2019-03-08T08:41:48.533Z,15.10
2019-03-08T08:42:48.509Z,15.20
2019-03-08T08:43:48.518Z,18.60
2019-03-08T08:44:48.481Z,20.70
2019-03-08T08:45:48.474Z,15.50
2019-03-08T08:46:48.466Z,18.30
2019-03-08T08:47:48.474Z,17.40
2019-03-08T08:48:48.463Z,18.90
2019-03-08T08:49:54.447Z,16.60
2019-03-08T08:50:49.427Z,17.30
2019-03-08T08:51:48.411Z,19.10
2019-03-08T08:52:48.405Z,16.50
2019-03-08T08:53:48.409Z,16.60
2019-03-08T08:54:48.379Z,15.00
2019-03-08T08:55:48.372Z,18.70
2019-03-08T08:56:48.369Z,15.70
2019-03-08T08:57:48.353Z,16.30
2019-03-08T08:58:48.354Z,16.90
2019-03-08T08:59:48.327Z,16.00
2019-03-08T09:00:48.363Z,19.80
2019-03-08T09:01:48.342Z,15.50
2019-03-08T09:02:48.335Z,19.70
2019-03-08T09:03:48.301Z,16.50
2019-03-08T09:04:48.286Z,18.80
2019-03-08T09:05:48.264Z,18.00
2019-03-08T09:06:48.277Z,19.60
2019-03-08T09:07:48.245Z,21.90
2019-03-08T09:08:48.252Z,13.50
2019-03-08T09:09:48.221Z,18.30
2019-03-08T09:10:48.234Z,16.40
2019-03-08T09:11:52.403Z,18.50
2019-03-08T09:12:48.186Z,14.20
2019-03-08T09:13:48.198Z,17.90
2019-03-08T09:14:48.167Z,19.70
2019-03-08T09:15:48.158Z,18.70
2019-03-08T09:16:48.170Z,20.60
2019-03-08T09:17:48.136Z,20.80
2019-03-08T09:18:48.122Z,16.20
2019-03-08T09:19:48.148Z,19.60
2019-03-08T09:20:48.099Z,18.30
2019-03-08T09:21:48.094Z,15.90
2019-03-08T09:22:48.093Z,11.90
2019-03-08T09:23:48.069Z,15.20
2019-03-08T09:24:48.079Z,17.90
2019-03-08T09:25:48.047Z,19.70
2019-03-08T09:26:48.039Z,17.40
2019-03-08T09:27:48.029Z,20.10
2019-03-08T09:28:48.034Z,17.10
2019-03-08T09:29:48.029Z,16.40
2019-03-08T09:30:47.996Z,17.70
2019-03-08T09:31:47.982Z,21.00
2019-03-08T09:32:47.975Z,16.50
2019-03-08T09:33:47.975Z,14.60
2019-03-08T09:34:48.723Z,18.80
2019-03-08T09:35:47.943Z,19.90
2019-03-08T09:36:47.954Z,16.00
2019-03-08T09:37:47.935Z,17.80
2019-03-08T09:38:47.910Z,12.20
2019-03-08T09:39:47.919Z,14.40
2019-03-08T09:40:47.890Z,15.00
2019-03-08T09:41:47.877Z,17.60
2019-03-08T09:42:47.867Z,13.10
2019-03-08T09:43:47.860Z,14.50
2019-03-08T09:44:47.875Z,16.50
2019-03-08T09:45:47.834Z,14.60
2019-03-08T09:46:49.304Z,13.20
2019-03-08T09:47:47.814Z,11.10
2019-03-08T09:48:48.892Z,15.30
2019-03-08T09:49:47.793Z,15.60
2019-03-08T09:50:47.806Z,16.70
2019-03-08T09:51:47.771Z,14.90
2019-03-08T09:52:47.769Z,16.20
2019-03-08T09:53:47.748Z,16.20
2019-03-08T09:54:47.749Z,14.10
2019-03-08T09:55:47.759Z,12.50
2019-03-08T09:56:47.717Z,16.50
2019-03-08T09:57:47.736Z,14.10
2019-03-08T09:58:47.701Z,15.90
2019-03-08T09:59:47.687Z,12.90
2019-03-08T10:00:47.965Z,14.60
2019-03-08T10:01:47.679Z,14.80
2019-03-08T10:02:47.654Z,18.30
2019-03-08T10:03:47.665Z,17.40
2019-03-08T10:04:47.649Z,13.60
2019-03-08T10:05:47.720Z,11.80
2019-03-08T10:06:47.611Z,13.80
2019-03-08T10:07:47.603Z,13.40
2019-03-08T10:08:47.594Z,9.50
2019-03-08T10:09:47.580Z,15.60
2019-03-08T10:10:47.593Z,11.10
2019-03-08T10:11:47.590Z,14.60
2019-03-08T10:12:47.558Z,12.00
2019-03-08T10:13:47.535Z,11.40
2019-03-08T10:14:47.521Z,14.70
2019-03-08T10:15:47.533Z,12.50
2019-03-08T10:16:47.507Z,12.20
2019-03-08T10:17:47.522Z,14.60
2019-03-08T10:18:47.484Z,14.30
2019-03-08T10:19:47.483Z,16.80
2019-03-08T10:20:47.490Z,15.00
2019-03-08T10:21:47.474Z,14.10
2019-03-08T10:22:47.438Z,14.20
2019-03-08T10:23:47.434Z,14.70
2019-03-08T10:24:47.420Z,16.20
2019-03-08T10:25:47.405Z,13.80
2019-03-08T10:26:47.433Z,17.60
2019-03-08T10:27:47.386Z,12.10
2019-03-08T10:28:47.388Z,10.90
2019-03-08T10:29:47.365Z,14.20
2019-03-08T10:30:47.357Z,13.30
2019-03-08T10:31:47.364Z,13.90
2019-03-08T10:32:47.343Z,12.60
2019-03-08T10:33:47.326Z,14.70
2019-03-08T10:34:47.310Z,11.20
2019-03-08T10:35:47.308Z,13.70
2019-03-08T10:36:47.307Z,14.30
2019-03-08T10:37:47.276Z,14.70
2019-03-08T10:38:47.323Z,13.20
2019-03-08T10:39:47.257Z,14.00
2019-03-08T10:40:47.254Z,11.70
2019-03-08T10:41:47.259Z,10.10
2019-03-08T10:42:47.231Z,11.60
2019-03-08T10:43:47.219Z,9.80
2019-03-08T10:44:47.205Z,11.50
2019-03-08T10:45:47.197Z,17.30
2019-03-08T10:46:47.200Z,16.40
2019-03-08T10:47:55.614Z,10.80
2019-03-08T10:48:48.159Z,14.30
2019-03-08T10:49:54.853Z,11.20
2019-03-08T10:50:48.141Z,11.50
2019-03-08T10:51:47.143Z,11.50
2019-03-08T10:52:47.123Z,11.20
2019-03-08T10:53:47.109Z,14.40
2019-03-08T10:54:47.104Z,12.30
2019-03-08T10:55:47.081Z,11.00
2019-03-08T10:56:47.114Z,15.10
2019-03-08T10:57:47.086Z,12.00
2019-03-08T10:58:47.058Z,10.30
2019-03-08T10:59:47.040Z,11.40
2019-03-08T11:00:47.037Z,13.80
2019-03-08T11:01:47.023Z,13.30
2019-03-08T11:02:48.246Z,12.00
2019-03-08T11:03:47.005Z,17.30
2019-03-08T11:04:47.002Z,11.50
2019-03-08T11:05:46.978Z,11.60
2019-03-08T11:06:46.974Z,13.00
2019-03-08T11:07:46.977Z,10.30
2019-03-08T11:08:46.949Z,14.00
2019-03-08T11:09:46.948Z,12.60
2019-03-08T11:10:48.426Z,13.10
2019-03-08T11:11:46.912Z,14.40
2019-03-08T11:12:46.953Z,13.10
2019-03-08T11:13:46.894Z,12.00
2019-03-08T11:14:46.889Z,12.60
2019-03-08T11:15:46.974Z,11.30
2019-03-08T11:16:46.867Z,12.10
2019-03-08T11:17:50.827Z,11.20
2019-03-08T11:18:46.851Z,10.70
2019-03-08T11:19:46.827Z,12.10
2019-03-08T11:20:46.813Z,7.80
2019-03-08T11:21:46.811Z,11.10
2019-03-08T11:22:46.816Z,7.60
2019-03-08T11:23:46.808Z,11.10
2019-03-08T11:24:46.794Z,11.10
2019-03-08T11:25:46.762Z,14.80
2019-03-08T11:26:46.749Z,12.80
2019-03-08T11:27:46.761Z,10.60
2019-03-08T11:28:46.731Z,11.50
2019-03-08T11:29:46.726Z,9.40
2019-03-08T11:30:53.797Z,9.70
2019-03-08T11:31:47.698Z,9.50
2019-03-08T11:32:46.714Z,11.30
2019-03-08T11:33:46.685Z,11.30
2019-03-08T11:34:52.184Z,10.60
2019-03-08T11:35:47.652Z,10.10
2019-03-08T11:36:46.651Z,11.70
2019-03-08T11:37:46.650Z,10.50
2019-03-08T11:38:46.632Z,16.50
2019-03-08T11:39:46.636Z,12.50
2019-03-08T11:40:46.602Z,12.20
2019-03-08T11:41:46.591Z,9.40
2019-03-08T11:42:46.603Z,11.60
2019-03-08T11:43:46.574Z,11.20
2019-03-08T11:44:46.558Z,11.20
2019-03-08T11:45:46.545Z,9.80
2019-03-08T11:46:46.533Z,12.70
2019-03-08T11:47:46.529Z,10.40
2019-03-08T11:48:46.531Z,11.60
2019-03-08T11:49:46.501Z,11.80
2019-03-08T11:50:46.512Z,13.10
2019-03-08T11:51:46.483Z,12.40
2019-03-08T11:52:46.471Z,11.80
2019-03-08T11:53:55.777Z,13.10
2019-03-08T11:54:47.462Z,13.70
2019-03-08T11:55:46.439Z,12.60
2019-03-08T11:56:55.675Z,12.50
2019-03-08T11:57:47.428Z,9.10
2019-03-08T11:58:46.427Z,11.10
2019-03-08T11:59:46.407Z,12.40
2019-03-08T12:00:46.386Z,14.70
2019-03-08T12:01:46.385Z,11.60
2019-03-08T12:02:46.374Z,12.60
2019-03-08T12:03:46.383Z,15.60
2019-03-08T12:04:46.339Z,15.90
2019-03-08T12:05:46.336Z,13.80
2019-03-08T12:06:46.319Z,11.40
2019-03-08T12:07:47.326Z,11.40
2019-03-08T12:08:46.319Z,12.10
2019-03-08T12:09:46.287Z,11.80
2019-03-08T12:10:46.276Z,11.50
2019-03-08T12:11:46.274Z,12.00
2019-03-08T12:12:46.641Z,14.10
2019-03-08T12:13:46.256Z,12.30
2019-03-08T12:14:46.320Z,14.10
2019-03-08T12:15:46.253Z,9.80
2019-03-08T12:16:46.245Z,9.90
2019-03-08T12:17:46.276Z,11.50
2019-03-08T12:18:46.194Z,11.40
2019-03-08T12:19:46.212Z,7.90
2019-03-08T12:20:46.192Z,8.20
2019-03-08T12:21:46.162Z,9.80
2019-03-08T12:22:46.148Z,10.80
2019-03-08T12:23:46.137Z,10.40
2019-03-08T12:24:46.159Z,8.40
2019-03-08T12:25:46.128Z,11.80
2019-03-08T12:26:46.106Z,8.10
2019-03-08T12:27:46.092Z,9.50
2019-03-08T12:28:46.107Z,9.10
2019-03-08T12:29:46.095Z,10.30
2019-03-08T12:30:46.063Z,8.10
2019-03-08T12:31:46.054Z,9.70
2019-03-08T12:32:46.041Z,11.20
2019-03-08T12:33:46.035Z,8.90
2019-03-08T12:34:46.040Z,9.10
2019-03-08T12:35:46.009Z,9.90
2019-03-08T12:36:46.001Z,13.40
2019-03-08T12:37:46.021Z,12.10
2019-03-08T12:38:45.974Z,12.00
2019-03-08T12:39:45.985Z,9.90
2019-03-08T12:40:45.953Z,12.10
2019-03-08T12:41:45.959Z,14.30
2019-03-08T12:42:45.931Z,12.90
2019-03-08T12:43:45.931Z,10.50
2019-03-08T12:44:45.933Z,10.40
2019-03-08T12:45:45.904Z,9.50
2019-03-08T12:46:45.903Z,10.10
2019-03-08T12:47:45.881Z,10.00
2019-03-08T12:48:45.883Z,10.10
2019-03-08T12:49:45.878Z,10.90
2019-03-08T12:50:45.845Z,9.40
2019-03-08T12:51:45.863Z,9.20
2019-03-08T12:52:45.828Z,11.70
2019-03-08T12:53:45.816Z,12.20
2019-03-08T12:54:45.812Z,11.80
2019-03-08T12:55:45.818Z,9.20
2019-03-08T12:56:45.808Z,9.90
2019-03-08T12:57:45.781Z,10.90
2019-03-08T12:58:45.763Z,9.90
2019-03-08T12:59:45.746Z,10.10
2019-03-08T13:00:45.843Z,10.40
2019-03-08T13:01:45.754Z,10.70
2019-03-08T13:02:45.726Z,8.60
2019-03-08T13:03:45.705Z,12.30
2019-03-08T13:04:45.699Z,9.20